Tony, Wisconsin
Current Conditions -  °F | °C
As of 10:15 PM on Friday 19 Dec 2014 (Local Time) from KRCX Reporting Station
Overcast Overcast  
Wind Chill: 26°   Ceiling: 2300
Heat Index: 26°   Visibility: 10mi
Dew Point: 22°   Wind: 3mph
Humidity: 88%   Direction: 150°SSE
Pressure: 30.21"   Gusts: NA
Location:  45.48°N, 90.99°W
Report Text: KRCX 200415Z AUTO 15003KT 10SM OVC023 M04/M05 A3021 RMK AO2 T10361053
Loading
Personal Weather Stations






























Interactive Weather Map New forecast layout! Learn more

10-Day Weather Forecast

Advertisements
Track Severe Weather on mobile